Killingworth, Connecticut
Current Conditions -  °F | °C
As of 12:55 PM on Friday 21 Nov 2014 (Local Time) from KSNC Reporting Station
Scattered Clouds Scattered Clouds  
Wind Chill: 24°   Ceiling: Unl
Heat Index: 34°   Visibility: 10mi
Dew Point:   Wind: 16mph
Humidity: 35%   Direction: 330°NNW
Pressure: 30.2"   Gusts: 22mph
Location:  41.36°N, 72.56°W
Report Text: KSNC 211755Z AUTO 33014G19KT 10SM SCT050 01/M13 A3020 RMK AO2
Loading
Personal Weather Stations






























Interactive Weather Map New forecast layout! Learn more

10-Day Weather Forecast

Advertisements
Track Severe Weather on mobile